sensor_id;sensor_type;location;lat;lon;timestamp;P1;durP1;ratioP1;P2;durP2;ratioP2
63818;SDS011;49970;54.976;73.248;2024-03-08T00:02:38;259.38;;;133.07;;
63818;SDS011;49970;54.976;73.248;2024-03-08T00:06:08;168.82;;;81.18;;
63818;SDS011;49970;54.976;73.248;2024-03-08T00:09:05;142.80;;;70.25;;
63818;SDS011;49970;54.976;73.248;2024-03-08T00:12:42;125.90;;;68.18;;
63818;SDS011;49970;54.976;73.248;2024-03-08T00:15:19;115.15;;;58.83;;
63818;SDS011;49970;54.976;73.248;2024-03-08T00:17:45;102.82;;;52.53;;
63818;SDS011;49970;54.976;73.248;2024-03-08T00:20:12;98.15;;;49.42;;
63818;SDS011;49970;54.976;73.248;2024-03-08T00:22:39;93.15;;;48.88;;
63818;SDS011;49970;54.976;73.248;2024-03-08T00:25:05;98.72;;;48.35;;
63818;SDS011;49970;54.976;73.248;2024-03-08T00:27:36;98.80;;;49.83;;
63818;SDS011;49970;54.976;73.248;2024-03-08T00:30:04;94.55;;;51.08;;
63818;SDS011;49970;54.976;73.248;2024-03-08T00:32:31;98.35;;;50.58;;
63818;SDS011;49970;54.976;73.248;2024-03-08T00:34:57;94.95;;;50.47;;
63818;SDS011;49970;54.976;73.248;2024-03-08T00:37:35;94.30;;;50.13;;
63818;SDS011;49970;54.976;73.248;2024-03-08T00:40:01;109.05;;;57.65;;
63818;SDS011;49970;54.976;73.248;2024-03-08T00:42:28;110.55;;;56.90;;
63818;SDS011;49970;54.976;73.248;2024-03-08T00:45:30;126.82;;;63.08;;
63818;SDS011;49970;54.976;73.248;2024-03-08T00:51:52;195.07;;;87.10;;
63818;SDS011;49970;54.976;73.248;2024-03-08T00:54:19;236.07;;;98.90;;
63818;SDS011;49970;54.976;73.248;2024-03-08T00:57:21;230.32;;;107.30;;
63818;SDS011;49970;54.976;73.248;2024-03-08T00:59:47;232.27;;;108.10;;
63818;SDS011;49970;54.976;73.248;2024-03-08T01:08:33;174.32;;;81.45;;
63818;SDS011;49970;54.976;73.248;2024-03-08T01:10:59;136.40;;;66.20;;
63818;SDS011;49970;54.976;73.248;2024-03-08T01:13:26;120.40;;;61.58;;
63818;SDS011;49970;54.976;73.248;2024-03-08T01:15:52;107.38;;;57.08;;
63818;SDS011;49970;54.976;73.248;2024-03-08T01:18:29;102.43;;;51.97;;
63818;SDS011;49970;54.976;73.248;2024-03-08T01:22:00;93.55;;;47.90;;
63818;SDS011;49970;54.976;73.248;2024-03-08T01:24:27;86.22;;;46.15;;
63818;SDS011;49970;54.976;73.248;2024-03-08T01:27:30;83.18;;;46.22;;
63818;SDS011;49970;54.976;73.248;2024-03-08T01:29:57;98.85;;;48.63;;
63818;SDS011;49970;54.976;73.248;2024-03-08T01:32:25;95.40;;;46.25;;
63818;SDS011;49970;54.976;73.248;2024-03-08T01:34:51;92.25;;;47.70;;
63818;SDS011;49970;54.976;73.248;2024-03-08T01:38:22;115.40;;;46.38;;
63818;SDS011;49970;54.976;73.248;2024-03-08T01:41:05;144.88;;;47.25;;
63818;SDS011;49970;54.976;73.248;2024-03-08T01:43:31;123.88;;;47.83;;
63818;SDS011;49970;54.976;73.248;2024-03-08T01:45:58;112.57;;;45.90;;
63818;SDS011;49970;54.976;73.248;2024-03-08T01:48:28;118.25;;;45.28;;
63818;SDS011;49970;54.976;73.248;2024-03-08T01:50:55;89.03;;;42.05;;
63818;SDS011;49970;54.976;73.248;2024-03-08T01:54:03;93.57;;;42.80;;
63818;SDS011;49970;54.976;73.248;2024-03-08T01:56:30;91.78;;;40.60;;
63818;SDS011;49970;54.976;73.248;2024-03-08T01:59:00;112.68;;;47.53;;
63818;SDS011;49970;54.976;73.248;2024-03-08T02:02:32;94.07;;;39.47;;
63818;SDS011;49970;54.976;73.248;2024-03-08T02:05:02;106.03;;;41.83;;
63818;SDS011;49970;54.976;73.248;2024-03-08T02:07:29;95.38;;;41.13;;
63818;SDS011;49970;54.976;73.248;2024-03-08T02:09:56;95.13;;;45.60;;
63818;SDS011;49970;54.976;73.248;2024-03-08T02:12:23;97.90;;;49.30;;
63818;SDS011;49970;54.976;73.248;2024-03-08T02:14:50;95.10;;;47.63;;
63818;SDS011;49970;54.976;73.248;2024-03-08T02:17:16;99.07;;;45.28;;
63818;SDS011;49970;54.976;73.248;2024-03-08T02:19:42;98.20;;;42.90;;
63818;SDS011;49970;54.976;73.248;2024-03-08T02:22:09;104.40;;;46.70;;
63818;SDS011;49970;54.976;73.248;2024-03-08T02:25:40;122.32;;;56.40;;
63818;SDS011;49970;54.976;73.248;2024-03-08T02:28:11;112.35;;;47.70;;
63818;SDS011;49970;54.976;73.248;2024-03-08T02:30:38;94.35;;;42.65;;
63818;SDS011;49970;54.976;73.248;2024-03-08T02:33:05;118.53;;;44.75;;
63818;SDS011;49970;54.976;73.248;2024-03-08T02:35:32;112.70;;;46.25;;
63818;SDS011;49970;54.976;73.248;2024-03-08T02:37:59;104.53;;;44.28;;
63818;SDS011;49970;54.976;73.248;2024-03-08T02:40:26;113.30;;;47.80;;
63818;SDS011;49970;54.976;73.248;2024-03-08T02:42:52;126.85;;;47.50;;
63818;SDS011;49970;54.976;73.248;2024-03-08T02:45:19;109.72;;;48.00;;
63818;SDS011;49970;54.976;73.248;2024-03-08T02:47:46;127.47;;;54.60;;
63818;SDS011;49970;54.976;73.248;2024-03-08T02:50:15;125.93;;;54.35;;
63818;SDS011;49970;54.976;73.248;2024-03-08T02:52:44;116.32;;;52.00;;
63818;SDS011;49970;54.976;73.248;2024-03-08T02:55:12;132.80;;;60.13;;
63818;SDS011;49970;54.976;73.248;2024-03-08T02:57:42;120.63;;;54.95;;
63818;SDS011;49970;54.976;73.248;2024-03-08T03:00:09;117.70;;;55.83;;
63818;SDS011;49970;54.976;73.248;2024-03-08T03:02:36;119.35;;;60.17;;
63818;SDS011;49970;54.976;73.248;2024-03-08T03:05:03;131.90;;;65.55;;
63818;SDS011;49970;54.976;73.248;2024-03-08T03:07:32;151.15;;;72.50;;
63818;SDS011;49970;54.976;73.248;2024-03-08T03:10:01;177.40;;;82.75;;
63818;SDS011;49970;54.976;73.248;2024-03-08T03:12:28;202.32;;;94.80;;
63818;SDS011;49970;54.976;73.248;2024-03-08T03:14:55;184.70;;;89.13;;
63818;SDS011;49970;54.976;73.248;2024-03-08T03:17:25;187.45;;;95.60;;
63818;SDS011;49970;54.976;73.248;2024-03-08T03:19:52;187.57;;;93.75;;
63818;SDS011;49970;54.976;73.248;2024-03-08T03:22:19;194.65;;;97.80;;
63818;SDS011;49970;54.976;73.248;2024-03-08T03:24:45;194.13;;;98.93;;
63818;SDS011;49970;54.976;73.248;2024-03-08T03:27:12;178.60;;;84.18;;
63818;SDS011;49970;54.976;73.248;2024-03-08T03:29:41;160.68;;;79.15;;
63818;SDS011;49970;54.976;73.248;2024-03-08T03:32:11;141.18;;;68.68;;
63818;SDS011;49970;54.976;73.248;2024-03-08T03:38:53;143.55;;;70.50;;
63818;SDS011;49970;54.976;73.248;2024-03-08T03:41:42;149.25;;;73.43;;
63818;SDS011;49970;54.976;73.248;2024-03-08T03:44:11;164.02;;;78.18;;
63818;SDS011;49970;54.976;73.248;2024-03-08T03:46:57;163.90;;;83.20;;
63818;SDS011;49970;54.976;73.248;2024-03-08T03:49:24;171.35;;;85.22;;
63818;SDS011;49970;54.976;73.248;2024-03-08T03:51:50;170.05;;;82.75;;
63818;SDS011;49970;54.976;73.248;2024-03-08T03:54:16;174.38;;;83.35;;
63818;SDS011;49970;54.976;73.248;2024-03-08T03:56:43;173.40;;;80.60;;
63818;SDS011;49970;54.976;73.248;2024-03-08T03:59:10;170.77;;;83.95;;
63818;SDS011;49970;54.976;73.248;2024-03-08T04:01:41;161.05;;;80.50;;
63818;SDS011;49970;54.976;73.248;2024-03-08T04:05:34;164.10;;;78.78;;
63818;SDS011;49970;54.976;73.248;2024-03-08T04:08:00;165.45;;;81.72;;
63818;SDS011;49970;54.976;73.248;2024-03-08T04:10:28;169.07;;;80.68;;
63818;SDS011;49970;54.976;73.248;2024-03-08T04:12:54;153.98;;;73.22;;
63818;SDS011;49970;54.976;73.248;2024-03-08T04:15:22;152.02;;;72.30;;
63818;SDS011;49970;54.976;73.248;2024-03-08T04:17:49;135.55;;;62.35;;
63818;SDS011;49970;54.976;73.248;2024-03-08T04:20:15;133.75;;;58.55;;
63818;SDS011;49970;54.976;73.248;2024-03-08T04:22:43;116.50;;;50.55;;
63818;SDS011;49970;54.976;73.248;2024-03-08T04:25:10;114.72;;;47.92;;
63818;SDS011;49970;54.976;73.248;2024-03-08T04:27:36;109.05;;;48.42;;
63818;SDS011;49970;54.976;73.248;2024-03-08T04:30:03;124.07;;;55.35;;
63818;SDS011;49970;54.976;73.248;2024-03-08T04:32:29;102.20;;;46.15;;
63818;SDS011;49970;54.976;73.248;2024-03-08T04:34:57;114.35;;;45.05;;
63818;SDS011;49970;54.976;73.248;2024-03-08T04:37:24;116.60;;;49.30;;
63818;SDS011;49970;54.976;73.248;2024-03-08T04:39:50;114.18;;;48.38;;
63818;SDS011;49970;54.976;73.248;2024-03-08T04:43:21;116.70;;;50.28;;
63818;SDS011;49970;54.976;73.248;2024-03-08T04:45:51;119.25;;;51.67;;
63818;SDS011;49970;54.976;73.248;2024-03-08T04:48:18;100.75;;;45.28;;
63818;SDS011;49970;54.976;73.248;2024-03-08T04:50:45;91.47;;;40.88;;
63818;SDS011;49970;54.976;73.248;2024-03-08T04:54:18;95.90;;;42.47;;
63818;SDS011;49970;54.976;73.248;2024-03-08T04:56:45;90.65;;;41.53;;
63818;SDS011;49970;54.976;73.248;2024-03-08T04:59:11;100.07;;;46.33;;
63818;SDS011;49970;54.976;73.248;2024-03-08T05:01:39;101.30;;;41.45;;
63818;SDS011;49970;54.976;73.248;2024-03-08T05:04:05;89.50;;;42.72;;
63818;SDS011;49970;54.976;73.248;2024-03-08T05:06:32;87.38;;;41.25;;
63818;SDS011;49970;54.976;73.248;2024-03-08T05:08:59;86.15;;;37.85;;
63818;SDS011;49970;54.976;73.248;2024-03-08T05:11:25;76.55;;;34.63;;
63818;SDS011;49970;54.976;73.248;2024-03-08T05:13:52;69.55;;;30.52;;
63818;SDS011;49970;54.976;73.248;2024-03-08T05:16:19;53.42;;;26.45;;
63818;SDS011;49970;54.976;73.248;2024-03-08T05:18:48;50.85;;;24.48;;
63818;SDS011;49970;54.976;73.248;2024-03-08T05:21:14;50.90;;;22.95;;
63818;SDS011;49970;54.976;73.248;2024-03-08T05:23:43;45.17;;;21.33;;
63818;SDS011;49970;54.976;73.248;2024-03-08T05:26:09;41.25;;;19.45;;
63818;SDS011;49970;54.976;73.248;2024-03-08T05:28:36;41.17;;;20.30;;
63818;SDS011;49970;54.976;73.248;2024-03-08T05:31:02;37.38;;;20.42;;
63818;SDS011;49970;54.976;73.248;2024-03-08T05:33:28;35.92;;;19.70;;
63818;SDS011;49970;54.976;73.248;2024-03-08T05:35:55;33.40;;;17.75;;
63818;SDS011;49970;54.976;73.248;2024-03-08T05:43:28;29.17;;;15.20;;
63818;SDS011;49970;54.976;73.248;2024-03-08T05:45:55;30.73;;;16.50;;
63818;SDS011;49970;54.976;73.248;2024-03-08T05:48:21;33.83;;;16.98;;
63818;SDS011;49970;54.976;73.248;2024-03-08T05:50:48;27.17;;;15.38;;
63818;SDS011;49970;54.976;73.248;2024-03-08T05:53:14;30.73;;;16.58;;
63818;SDS011;49970;54.976;73.248;2024-03-08T05:55:40;38.35;;;17.83;;
63818;SDS011;49970;54.976;73.248;2024-03-08T05:58:07;41.03;;;15.90;;
63818;SDS011;49970;54.976;73.248;2024-03-08T06:00:34;34.17;;;19.55;;
63818;SDS011;49970;54.976;73.248;2024-03-08T06:03:02;28.30;;;16.75;;
63818;SDS011;49970;54.976;73.248;2024-03-08T06:05:29;29.95;;;18.02;;
63818;SDS011;49970;54.976;73.248;2024-03-08T06:07:56;28.50;;;16.85;;
63818;SDS011;49970;54.976;73.248;2024-03-08T06:10:22;36.72;;;17.60;;
63818;SDS011;49970;54.976;73.248;2024-03-08T06:12:48;35.40;;;17.90;;
63818;SDS011;49970;54.976;73.248;2024-03-08T06:15:16;29.02;;;16.60;;
63818;SDS011;49970;54.976;73.248;2024-03-08T06:17:42;34.10;;;17.67;;
63818;SDS011;49970;54.976;73.248;2024-03-08T06:20:09;29.23;;;16.45;;
63818;SDS011;49970;54.976;73.248;2024-03-08T06:22:39;29.48;;;15.50;;
63818;SDS011;49970;54.976;73.248;2024-03-08T06:25:10;31.77;;;15.95;;
63818;SDS011;49970;54.976;73.248;2024-03-08T06:27:41;29.42;;;16.77;;
63818;SDS011;49970;54.976;73.248;2024-03-08T06:30:12;32.50;;;15.80;;
63818;SDS011;49970;54.976;73.248;2024-03-08T06:32:39;31.25;;;16.13;;
63818;SDS011;49970;54.976;73.248;2024-03-08T06:35:06;35.53;;;16.73;;
63818;SDS011;49970;54.976;73.248;2024-03-08T06:37:33;26.10;;;16.00;;
63818;SDS011;49970;54.976;73.248;2024-03-08T06:40:00;32.47;;;17.85;;
63818;SDS011;49970;54.976;73.248;2024-03-08T06:42:29;27.77;;;16.65;;
63818;SDS011;49970;54.976;73.248;2024-03-08T06:44:59;35.55;;;18.08;;
63818;SDS011;49970;54.976;73.248;2024-03-08T06:47:31;39.22;;;19.60;;
63818;SDS011;49970;54.976;73.248;2024-03-08T06:49:59;27.48;;;16.83;;
63818;SDS011;49970;54.976;73.248;2024-03-08T06:52:26;31.70;;;17.50;;
63818;SDS011;49970;54.976;73.248;2024-03-08T06:54:52;37.25;;;15.10;;
63818;SDS011;49970;54.976;73.248;2024-03-08T06:57:18;27.98;;;16.60;;
63818;SDS011;49970;54.976;73.248;2024-03-08T06:59:48;25.98;;;14.75;;
63818;SDS011;49970;54.976;73.248;2024-03-08T07:02:14;23.02;;;13.77;;
63818;SDS011;49970;54.976;73.248;2024-03-08T07:04:41;25.52;;;15.98;;
63818;SDS011;49970;54.976;73.248;2024-03-08T07:07:07;32.25;;;15.40;;
63818;SDS011;49970;54.976;73.248;2024-03-08T07:09:36;20.33;;;13.23;;
63818;SDS011;49970;54.976;73.248;2024-03-08T07:12:02;22.65;;;14.70;;
63818;SDS011;49970;54.976;73.248;2024-03-08T07:14:29;24.88;;;13.93;;
63818;SDS011;49970;54.976;73.248;2024-03-08T07:16:58;22.58;;;13.95;;
63818;SDS011;49970;54.976;73.248;2024-03-08T07:19:25;20.40;;;13.15;;
63818;SDS011;49970;54.976;73.248;2024-03-08T07:21:51;21.70;;;14.00;;
63818;SDS011;49970;54.976;73.248;2024-03-08T07:24:18;23.85;;;15.13;;
63818;SDS011;49970;54.976;73.248;2024-03-08T07:26:44;21.33;;;14.63;;
63818;SDS011;49970;54.976;73.248;2024-03-08T07:29:15;24.88;;;14.43;;
63818;SDS011;49970;54.976;73.248;2024-03-08T07:31:42;32.70;;;13.80;;
63818;SDS011;49970;54.976;73.248;2024-03-08T07:34:08;21.63;;;14.15;;
63818;SDS011;49970;54.976;73.248;2024-03-08T07:36:35;21.65;;;12.75;;
63818;SDS011;49970;54.976;73.248;2024-03-08T07:39:01;20.23;;;12.65;;
63818;SDS011;49970;54.976;73.248;2024-03-08T07:41:28;20.60;;;13.55;;
63818;SDS011;49970;54.976;73.248;2024-03-08T07:43:55;21.08;;;13.55;;
63818;SDS011;49970;54.976;73.248;2024-03-08T07:46:22;21.90;;;11.95;;
63818;SDS011;49970;54.976;73.248;2024-03-08T07:48:48;19.85;;;12.02;;
63818;SDS011;49970;54.976;73.248;2024-03-08T07:51:18;20.88;;;11.68;;
63818;SDS011;49970;54.976;73.248;2024-03-08T07:53:44;14.88;;;10.02;;
63818;SDS011;49970;54.976;73.248;2024-03-08T07:56:11;21.83;;;11.05;;
63818;SDS011;49970;54.976;73.248;2024-03-08T07:58:39;20.77;;;11.35;;
63818;SDS011;49970;54.976;73.248;2024-03-08T08:01:15;17.52;;;9.50;;
63818;SDS011;49970;54.976;73.248;2024-03-08T08:03:47;14.13;;;10.40;;
63818;SDS011;49970;54.976;73.248;2024-03-08T08:06:17;14.88;;;11.13;;
63818;SDS011;49970;54.976;73.248;2024-03-08T08:08:44;18.42;;;9.98;;
63818;SDS011;49970;54.976;73.248;2024-03-08T08:11:11;16.65;;;11.40;;
63818;SDS011;49970;54.976;73.248;2024-03-08T08:13:37;19.77;;;12.05;;
63818;SDS011;49970;54.976;73.248;2024-03-08T08:16:04;18.35;;;10.52;;
63818;SDS011;49970;54.976;73.248;2024-03-08T08:18:34;17.55;;;10.35;;
63818;SDS011;49970;54.976;73.248;2024-03-08T08:21:01;13.57;;;9.13;;
63818;SDS011;49970;54.976;73.248;2024-03-08T08:23:28;14.13;;;8.95;;
63818;SDS011;49970;54.976;73.248;2024-03-08T08:25:55;13.65;;;9.48;;
63818;SDS011;49970;54.976;73.248;2024-03-08T08:28:25;14.82;;;10.52;;
63818;SDS011;49970;54.976;73.248;2024-03-08T08:30:51;16.60;;;10.85;;
63818;SDS011;49970;54.976;73.248;2024-03-08T08:33:18;13.93;;;10.15;;
63818;SDS011;49970;54.976;73.248;2024-03-08T08:35:45;23.23;;;10.60;;
63818;SDS011;49970;54.976;73.248;2024-03-08T08:38:13;18.02;;;10.07;;
63818;SDS011;49970;54.976;73.248;2024-03-08T08:40:39;12.20;;;8.77;;
63818;SDS011;49970;54.976;73.248;2024-03-08T08:43:07;17.27;;;9.65;;
63818;SDS011;49970;54.976;73.248;2024-03-08T08:45:33;14.82;;;10.68;;
63818;SDS011;49970;54.976;73.248;2024-03-08T08:47:59;16.48;;;10.18;;
63818;SDS011;49970;54.976;73.248;2024-03-08T08:50:26;15.80;;;9.35;;
63818;SDS011;49970;54.976;73.248;2024-03-08T08:52:54;15.60;;;9.18;;
63818;SDS011;49970;54.976;73.248;2024-03-08T08:55:20;12.32;;;9.25;;
63818;SDS011;49970;54.976;73.248;2024-03-08T08:57:53;14.93;;;10.00;;
63818;SDS011;49970;54.976;73.248;2024-03-08T09:00:19;15.07;;;11.20;;
63818;SDS011;49970;54.976;73.248;2024-03-08T09:02:47;15.55;;;10.02;;
63818;SDS011;49970;54.976;73.248;2024-03-08T09:05:16;13.85;;;10.48;;
63818;SDS011;49970;54.976;73.248;2024-03-08T09:07:46;17.13;;;10.23;;
63818;SDS011;49970;54.976;73.248;2024-03-08T09:11:18;15.63;;;11.38;;
63818;SDS011;49970;54.976;73.248;2024-03-08T09:13:45;16.13;;;11.00;;
63818;SDS011;49970;54.976;73.248;2024-03-08T09:16:12;16.83;;;11.35;;
63818;SDS011;49970;54.976;73.248;2024-03-08T09:18:39;16.60;;;12.10;;
63818;SDS011;49970;54.976;73.248;2024-03-08T09:22:10;19.77;;;13.05;;
63818;SDS011;49970;54.976;73.248;2024-03-08T09:25:41;13.00;;;11.10;;
63818;SDS011;49970;54.976;73.248;2024-03-08T09:28:07;17.75;;;12.30;;
63818;SDS011;49970;54.976;73.248;2024-03-08T09:30:34;16.45;;;12.05;;
63818;SDS011;49970;54.976;73.248;2024-03-08T09:33:02;20.88;;;12.93;;
63818;SDS011;49970;54.976;73.248;2024-03-08T09:36:34;26.10;;;13.02;;
63818;SDS011;49970;54.976;73.248;2024-03-08T09:39:00;15.20;;;11.13;;
63818;SDS011;49970;54.976;73.248;2024-03-08T09:41:27;27.92;;;11.98;;
63818;SDS011;49970;54.976;73.248;2024-03-08T09:43:53;15.93;;;11.30;;
63818;SDS011;49970;54.976;73.248;2024-03-08T09:46:21;22.23;;;12.98;;
63818;SDS011;49970;54.976;73.248;2024-03-08T09:48:49;18.40;;;11.75;;
63818;SDS011;49970;54.976;73.248;2024-03-08T09:51:15;22.23;;;14.32;;
63818;SDS011;49970;54.976;73.248;2024-03-08T09:53:42;22.75;;;12.73;;
63818;SDS011;49970;54.976;73.248;2024-03-08T09:57:13;21.35;;;12.60;;
63818;SDS011;49970;54.976;73.248;2024-03-08T10:00:44;16.55;;;12.60;;
63818;SDS011;49970;54.976;73.248;2024-03-08T10:03:10;20.15;;;12.88;;
63818;SDS011;49970;54.976;73.248;2024-03-08T10:05:43;25.70;;;13.20;;
63818;SDS011;49970;54.976;73.248;2024-03-08T10:08:12;14.43;;;11.23;;
63818;SDS011;49970;54.976;73.248;2024-03-08T10:10:39;20.60;;;13.23;;
63818;SDS011;49970;54.976;73.248;2024-03-08T10:13:06;19.67;;;12.88;;
63818;SDS011;49970;54.976;73.248;2024-03-08T10:15:33;18.83;;;11.38;;
63818;SDS011;49970;54.976;73.248;2024-03-08T10:17:59;23.48;;;15.15;;
63818;SDS011;49970;54.976;73.248;2024-03-08T10:20:27;22.25;;;13.80;;
63818;SDS011;49970;54.976;73.248;2024-03-08T10:22:55;20.88;;;13.50;;
63818;SDS011;49970;54.976;73.248;2024-03-08T10:25:22;23.00;;;13.40;;
63818;SDS011;49970;54.976;73.248;2024-03-08T10:28:53;21.02;;;14.23;;
63818;SDS011;49970;54.976;73.248;2024-03-08T10:32:24;21.85;;;11.88;;
63818;SDS011;49970;54.976;73.248;2024-03-08T10:34:51;18.73;;;12.23;;
63818;SDS011;49970;54.976;73.248;2024-03-08T10:37:21;21.35;;;13.30;;
63818;SDS011;49970;54.976;73.248;2024-03-08T10:40:09;28.70;;;15.32;;
63818;SDS011;49970;54.976;73.248;2024-03-08T10:42:45;25.45;;;14.68;;
63818;SDS011;49970;54.976;73.248;2024-03-08T10:47:57;22.50;;;14.32;;
63818;SDS011;49970;54.976;73.248;2024-03-08T10:50:31;25.73;;;14.20;;
63818;SDS011;49970;54.976;73.248;2024-03-08T10:53:00;19.83;;;13.45;;
63818;SDS011;49970;54.976;73.248;2024-03-08T10:55:29;24.80;;;13.63;;
63818;SDS011;49970;54.976;73.248;2024-03-08T10:57:59;23.85;;;13.65;;
63818;SDS011;49970;54.976;73.248;2024-03-08T11:01:30;25.35;;;13.60;;
63818;SDS011;49970;54.976;73.248;2024-03-08T11:05:01;26.90;;;14.43;;
63818;SDS011;49970;54.976;73.248;2024-03-08T11:08:32;23.58;;;14.02;;
63818;SDS011;49970;54.976;73.248;2024-03-08T11:11:24;34.28;;;15.75;;
63818;SDS011;49970;54.976;73.248;2024-03-08T11:13:53;32.30;;;15.73;;
63818;SDS011;49970;54.976;73.248;2024-03-08T11:18:53;31.08;;;14.82;;
63818;SDS011;49970;54.976;73.248;2024-03-08T11:21:20;29.15;;;15.18;;
63818;SDS011;49970;54.976;73.248;2024-03-08T11:24:00;31.48;;;15.43;;
63818;SDS011;49970;54.976;73.248;2024-03-08T11:26:27;39.90;;;14.10;;
63818;SDS011;49970;54.976;73.248;2024-03-08T11:29:42;34.90;;;18.70;;
63818;SDS011;49970;54.976;73.248;2024-03-08T11:34:42;28.50;;;16.05;;
63818;SDS011;49970;54.976;73.248;2024-03-08T11:37:13;35.88;;;15.35;;
63818;SDS011;49970;54.976;73.248;2024-03-08T11:39:46;39.10;;;17.35;;
63818;SDS011;49970;54.976;73.248;2024-03-08T11:42:24;38.90;;;16.88;;
63818;SDS011;49970;54.976;73.248;2024-03-08T11:44:54;35.25;;;18.58;;
63818;SDS011;49970;54.976;73.248;2024-03-08T11:48:24;36.47;;;18.17;;
63818;SDS011;49970;54.976;73.248;2024-03-08T11:51:55;32.30;;;17.10;;
63818;SDS011;49970;54.976;73.248;2024-03-08T11:54:22;41.83;;;18.92;;
63818;SDS011;49970;54.976;73.248;2024-03-08T11:56:51;45.08;;;20.45;;
63818;SDS011;49970;54.976;73.248;2024-03-08T11:59:18;41.22;;;18.05;;
63818;SDS011;49970;54.976;73.248;2024-03-08T12:01:47;40.70;;;18.77;;
63818;SDS011;49970;54.976;73.248;2024-03-08T12:04:24;48.83;;;19.90;;
63818;SDS011;49970;54.976;73.248;2024-03-08T12:06:50;41.25;;;18.95;;
63818;SDS011;49970;54.976;73.248;2024-03-08T12:09:16;34.17;;;19.25;;
63818;SDS011;49970;54.976;73.248;2024-03-08T12:11:43;43.70;;;18.42;;
63818;SDS011;49970;54.976;73.248;2024-03-08T12:14:13;42.70;;;18.52;;
63818;SDS011;49970;54.976;73.248;2024-03-08T12:16:39;45.08;;;18.17;;
63818;SDS011;49970;54.976;73.248;2024-03-08T12:19:08;43.15;;;20.15;;
63818;SDS011;49970;54.976;73.248;2024-03-08T12:21:36;53.38;;;23.13;;
63818;SDS011;49970;54.976;73.248;2024-03-08T12:24:22;56.20;;;24.88;;
63818;SDS011;49970;54.976;73.248;2024-03-08T12:28:06;43.75;;;22.27;;
63818;SDS011;49970;54.976;73.248;2024-03-08T12:31:47;46.92;;;21.67;;
63818;SDS011;49970;54.976;73.248;2024-03-08T12:34:18;71.55;;;30.23;;
63818;SDS011;49970;54.976;73.248;2024-03-08T12:36:48;53.45;;;23.48;;
63818;SDS011;49970;54.976;73.248;2024-03-08T12:39:18;54.50;;;28.38;;
63818;SDS011;49970;54.976;73.248;2024-03-08T12:41:48;61.13;;;29.20;;
63818;SDS011;49970;54.976;73.248;2024-03-08T12:44:18;144.60;;;66.50;;
63818;SDS011;49970;54.976;73.248;2024-03-08T12:46:47;126.53;;;58.92;;
63818;SDS011;49970;54.976;73.248;2024-03-08T12:50:19;94.55;;;40.10;;
63818;SDS011;49970;54.976;73.248;2024-03-08T12:53:49;139.02;;;52.20;;
63818;SDS011;49970;54.976;73.248;2024-03-08T12:56:31;72.93;;;35.50;;
63818;SDS011;49970;54.976;73.248;2024-03-08T12:58:59;55.10;;;28.02;;
63818;SDS011;49970;54.976;73.248;2024-03-08T13:01:26;49.00;;;24.92;;
63818;SDS011;49970;54.976;73.248;2024-03-08T13:04:07;53.45;;;25.20;;
63818;SDS011;49970;54.976;73.248;2024-03-08T13:06:36;75.25;;;26.98;;
63818;SDS011;49970;54.976;73.248;2024-03-08T13:09:03;47.17;;;24.27;;
63818;SDS011;49970;54.976;73.248;2024-03-08T13:11:31;47.97;;;24.20;;
63818;SDS011;49970;54.976;73.248;2024-03-08T13:14:04;49.33;;;24.45;;
63818;SDS011;49970;54.976;73.248;2024-03-08T13:16:31;47.83;;;24.77;;
63818;SDS011;49970;54.976;73.248;2024-03-08T13:19:17;42.38;;;22.23;;
63818;SDS011;49970;54.976;73.248;2024-03-08T13:21:47;42.35;;;22.70;;
63818;SDS011;49970;54.976;73.248;2024-03-08T13:24:16;45.72;;;23.50;;
63818;SDS011;49970;54.976;73.248;2024-03-08T13:26:44;50.65;;;25.10;;
63818;SDS011;49970;54.976;73.248;2024-03-08T13:29:11;53.67;;;27.05;;
63818;SDS011;49970;54.976;73.248;2024-03-08T13:31:37;53.30;;;28.55;;
63818;SDS011;49970;54.976;73.248;2024-03-08T13:34:03;70.93;;;32.13;;
63818;SDS011;49970;54.976;73.248;2024-03-08T13:36:31;71.43;;;33.38;;
63818;SDS011;49970;54.976;73.248;2024-03-08T13:39:05;85.05;;;37.25;;
63818;SDS011;49970;54.976;73.248;2024-03-08T13:41:53;88.30;;;37.30;;
63818;SDS011;49970;54.976;73.248;2024-03-08T13:44:32;76.30;;;38.10;;
63818;SDS011;49970;54.976;73.248;2024-03-08T13:46:58;80.50;;;38.83;;
63818;SDS011;49970;54.976;73.248;2024-03-08T13:49:44;90.05;;;39.15;;
63818;SDS011;49970;54.976;73.248;2024-03-08T13:52:11;79.95;;;35.80;;
63818;SDS011;49970;54.976;73.248;2024-03-08T13:54:40;67.35;;;35.47;;
63818;SDS011;49970;54.976;73.248;2024-03-08T13:57:06;65.00;;;33.60;;
63818;SDS011;49970;54.976;73.248;2024-03-08T13:59:33;61.33;;;32.47;;
63818;SDS011;49970;54.976;73.248;2024-03-08T14:02:01;67.90;;;33.58;;
63818;SDS011;49970;54.976;73.248;2024-03-08T14:04:28;62.95;;;32.75;;
63818;SDS011;49970;54.976;73.248;2024-03-08T14:06:55;72.05;;;34.95;;
63818;SDS011;49970;54.976;73.248;2024-03-08T14:09:29;66.25;;;34.10;;
63818;SDS011;49970;54.976;73.248;2024-03-08T14:11:57;77.35;;;36.88;;
63818;SDS011;49970;54.976;73.248;2024-03-08T14:14:24;66.93;;;35.63;;
63818;SDS011;49970;54.976;73.248;2024-03-08T14:16:50;77.40;;;36.05;;
63818;SDS011;49970;54.976;73.248;2024-03-08T14:19:23;85.38;;;39.30;;
63818;SDS011;49970;54.976;73.248;2024-03-08T14:21:50;77.43;;;39.95;;
63818;SDS011;49970;54.976;73.248;2024-03-08T14:24:19;104.65;;;44.70;;
63818;SDS011;49970;54.976;73.248;2024-03-08T14:26:46;96.00;;;43.63;;
63818;SDS011;49970;54.976;73.248;2024-03-08T14:29:15;89.78;;;43.25;;
63818;SDS011;49970;54.976;73.248;2024-03-08T14:31:41;102.70;;;47.42;;
63818;SDS011;49970;54.976;73.248;2024-03-08T14:34:08;117.00;;;47.33;;
63818;SDS011;49970;54.976;73.248;2024-03-08T14:36:35;114.45;;;51.05;;
63818;SDS011;49970;54.976;73.248;2024-03-08T14:39:01;119.18;;;51.13;;
63818;SDS011;49970;54.976;73.248;2024-03-08T14:41:28;114.38;;;48.95;;
63818;SDS011;49970;54.976;73.248;2024-03-08T14:43:55;111.80;;;49.30;;
63818;SDS011;49970;54.976;73.248;2024-03-08T14:47:26;109.38;;;49.88;;
63818;SDS011;49970;54.976;73.248;2024-03-08T14:50:18;108.43;;;49.28;;
63818;SDS011;49970;54.976;73.248;2024-03-08T14:52:45;120.63;;;48.75;;
63818;SDS011;49970;54.976;73.248;2024-03-08T14:55:17;99.25;;;44.95;;
63818;SDS011;49970;54.976;73.248;2024-03-08T14:57:48;100.45;;;44.65;;
63818;SDS011;49970;54.976;73.248;2024-03-08T15:00:17;91.07;;;43.47;;
63818;SDS011;49970;54.976;73.248;2024-03-08T15:03:14;105.07;;;45.53;;
63818;SDS011;49970;54.976;73.248;2024-03-08T15:05:42;117.00;;;49.47;;
63818;SDS011;49970;54.976;73.248;2024-03-08T15:08:13;112.57;;;46.60;;
63818;SDS011;49970;54.976;73.248;2024-03-08T15:10:48;113.10;;;46.70;;
63818;SDS011;49970;54.976;73.248;2024-03-08T15:13:20;109.95;;;47.85;;
63818;SDS011;49970;54.976;73.248;2024-03-08T15:15:53;108.18;;;47.40;;